sensor_id;sensor_type;location;lat;lon;timestamp;temperature;humidity
35127;DHT22;21300;52.006;5.798;2023-02-26T00:01:12;3.20;99.90
35127;DHT22;21300;52.006;5.798;2023-02-26T00:03:39;3.20;99.90
35127;DHT22;21300;52.006;5.798;2023-02-26T00:06:05;3.10;99.90
35127;DHT22;21300;52.006;5.798;2023-02-26T00:08:31;3.10;99.90
35127;DHT22;21300;52.006;5.798;2023-02-26T00:10:57;3.10;99.90
35127;DHT22;21300;52.006;5.798;2023-02-26T00:13:25;3.10;99.90
35127;DHT22;21300;52.006;5.798;2023-02-26T00:15:57;3.10;99.90
35127;DHT22;21300;52.006;5.798;2023-02-26T00:21:13;3.10;99.90
35127;DHT22;21300;52.006;5.798;2023-02-26T00:23:40;3.10;99.90
35127;DHT22;21300;52.006;5.798;2023-02-26T00:26:05;3.10;99.90
35127;DHT22;21300;52.006;5.798;2023-02-26T00:28:31;3.10;99.90
35127;DHT22;21300;52.006;5.798;2023-02-26T00:30:57;3.00;99.90
35127;DHT22;21300;52.006;5.798;2023-02-26T00:33:23;3.00;99.90
35127;DHT22;21300;52.006;5.798;2023-02-26T00:35:56;3.00;99.90
35127;DHT22;21300;52.006;5.798;2023-02-26T00:38:26;3.00;99.90
35127;DHT22;21300;52.006;5.798;2023-02-26T00:40:52;3.00;99.90
35127;DHT22;21300;52.006;5.798;2023-02-26T00:43:23;3.00;99.90
35127;DHT22;21300;52.006;5.798;2023-02-26T00:51:34;3.00;99.90
35127;DHT22;21300;52.006;5.798;2023-02-26T00:56:43;2.90;99.90
35127;DHT22;21300;52.006;5.798;2023-02-26T00:59:08;3.00;99.90
35127;DHT22;21300;52.006;5.798;2023-02-26T01:01:34;2.90;99.90
35127;DHT22;21300;52.006;5.798;2023-02-26T01:04:00;2.90;99.90
35127;DHT22;21300;52.006;5.798;2023-02-26T01:06:30;2.90;99.90
35127;DHT22;21300;52.006;5.798;2023-02-26T01:11:48;2.90;99.90
35127;DHT22;21300;52.006;5.798;2023-02-26T01:14:14;2.90;99.90
35127;DHT22;21300;52.006;5.798;2023-02-26T01:22:22;2.80;99.90
35127;DHT22;21300;52.006;5.798;2023-02-26T01:24:53;2.80;99.90
35127;DHT22;21300;52.006;5.798;2023-02-26T01:27:20;2.80;99.90
35127;DHT22;21300;52.006;5.798;2023-02-26T01:29:46;2.80;99.90
35127;DHT22;21300;52.006;5.798;2023-02-26T01:32:18;2.80;99.90
35127;DHT22;21300;52.006;5.798;2023-02-26T01:35:04;2.80;99.90
35127;DHT22;21300;52.006;5.798;2023-02-26T01:37:38;2.80;99.90
35127;DHT22;21300;52.006;5.798;2023-02-26T01:42:35;2.80;99.90
35127;DHT22;21300;52.006;5.798;2023-02-26T01:45:31;2.70;99.90
35127;DHT22;21300;52.006;5.798;2023-02-26T01:48:03;2.70;99.90
35127;DHT22;21300;52.006;5.798;2023-02-26T01:50:31;2.70;99.90
35127;DHT22;21300;52.006;5.798;2023-02-26T01:53:23;2.70;99.90
35127;DHT22;21300;52.006;5.798;2023-02-26T01:56:17;2.70;99.90
35127;DHT22;21300;52.006;5.798;2023-02-26T01:58:43;2.70;99.90
35127;DHT22;21300;52.006;5.798;2023-02-26T02:01:11;2.60;99.90
35127;DHT22;21300;52.006;5.798;2023-02-26T02:03:38;2.70;99.90
35127;DHT22;21300;52.006;5.798;2023-02-26T02:06:14;2.70;99.90
35127;DHT22;21300;52.006;5.798;2023-02-26T02:08:40;2.60;99.90
35127;DHT22;21300;52.006;5.798;2023-02-26T02:11:11;2.60;99.90
35127;DHT22;21300;52.006;5.798;2023-02-26T02:14:04;2.60;99.90
35127;DHT22;21300;52.006;5.798;2023-02-26T02:17:08;2.60;99.90
35127;DHT22;21300;52.006;5.798;2023-02-26T02:31:53;2.50;99.90
35127;DHT22;21300;52.006;5.798;2023-02-26T02:36:50;2.50;99.90
35127;DHT22;21300;52.006;5.798;2023-02-26T02:39:28;2.50;99.90
35127;DHT22;21300;52.006;5.798;2023-02-26T02:42:02;2.40;99.90
35127;DHT22;21300;52.006;5.798;2023-02-26T02:44:31;2.40;99.90
35127;DHT22;21300;52.006;5.798;2023-02-26T02:46:59;2.40;99.90
35127;DHT22;21300;52.006;5.798;2023-02-26T02:49:30;2.40;99.90
35127;DHT22;21300;52.006;5.798;2023-02-26T02:52:04;2.40;99.90
35127;DHT22;21300;52.006;5.798;2023-02-26T02:54:39;2.40;99.90
35127;DHT22;21300;52.006;5.798;2023-02-26T02:57:19;2.40;99.90
35127;DHT22;21300;52.006;5.798;2023-02-26T02:59:48;2.40;99.90
35127;DHT22;21300;52.006;5.798;2023-02-26T03:02:31;2.40;99.90
35127;DHT22;21300;52.006;5.798;2023-02-26T03:04:58;2.40;99.90
35127;DHT22;21300;52.006;5.798;2023-02-26T03:07:24;2.30;99.90
35127;DHT22;21300;52.006;5.798;2023-02-26T03:09:50;2.30;99.90
35127;DHT22;21300;52.006;5.798;2023-02-26T03:12:16;2.30;99.90
35127;DHT22;21300;52.006;5.798;2023-02-26T03:14:42;2.30;99.90
35127;DHT22;21300;52.006;5.798;2023-02-26T03:22:14;2.30;99.90
35127;DHT22;21300;52.006;5.798;2023-02-26T03:24:59;2.30;99.90
35127;DHT22;21300;52.006;5.798;2023-02-26T03:33:05;2.20;99.90
35127;DHT22;21300;52.006;5.798;2023-02-26T03:35:43;2.20;99.90
35127;DHT22;21300;52.006;5.798;2023-02-26T03:38:14;2.30;99.90
35127;DHT22;21300;52.006;5.798;2023-02-26T03:40:46;2.20;99.90
35127;DHT22;21300;52.006;5.798;2023-02-26T03:43:54;2.30;99.90
35127;DHT22;21300;52.006;5.798;2023-02-26T03:46:16;2.20;99.90
35127;DHT22;21300;52.006;5.798;2023-02-26T03:48:45;2.20;99.90
35127;DHT22;21300;52.006;5.798;2023-02-26T03:51:13;2.20;99.90
35127;DHT22;21300;52.006;5.798;2023-02-26T03:53:49;2.20;99.90
35127;DHT22;21300;52.006;5.798;2023-02-26T03:56:38;2.20;99.90
35127;DHT22;21300;52.006;5.798;2023-02-26T03:59:04;2.10;99.90
35127;DHT22;21300;52.006;5.798;2023-02-26T04:04:34;2.10;99.90
35127;DHT22;21300;52.006;5.798;2023-02-26T04:07:02;2.10;99.90
35127;DHT22;21300;52.006;5.798;2023-02-26T04:09:28;2.10;99.90
35127;DHT22;21300;52.006;5.798;2023-02-26T04:11:55;2.10;99.90
35127;DHT22;21300;52.006;5.798;2023-02-26T04:14:21;2.10;99.90
35127;DHT22;21300;52.006;5.798;2023-02-26T04:16:47;2.10;99.90
35127;DHT22;21300;52.006;5.798;2023-02-26T04:19:12;2.10;99.90
35127;DHT22;21300;52.006;5.798;2023-02-26T04:21:38;2.00;99.90
35127;DHT22;21300;52.006;5.798;2023-02-26T04:24:04;2.00;99.90
35127;DHT22;21300;52.006;5.798;2023-02-26T04:26:30;2.10;99.90
35127;DHT22;21300;52.006;5.798;2023-02-26T04:28:55;2.00;99.90
35127;DHT22;21300;52.006;5.798;2023-02-26T04:31:21;2.10;99.90
35127;DHT22;21300;52.006;5.798;2023-02-26T04:33:47;2.00;99.90
35127;DHT22;21300;52.006;5.798;2023-02-26T04:36:12;2.00;99.90
35127;DHT22;21300;52.006;5.798;2023-02-26T04:38:38;2.00;99.90
35127;DHT22;21300;52.006;5.798;2023-02-26T04:41:04;2.00;99.90
35127;DHT22;21300;52.006;5.798;2023-02-26T04:43:30;1.90;99.90
35127;DHT22;21300;52.006;5.798;2023-02-26T04:45:55;1.90;99.90
35127;DHT22;21300;52.006;5.798;2023-02-26T04:48:21;1.90;99.90
35127;DHT22;21300;52.006;5.798;2023-02-26T04:50:46;1.90;99.90
35127;DHT22;21300;52.006;5.798;2023-02-26T04:53:12;1.90;99.90
35127;DHT22;21300;52.006;5.798;2023-02-26T04:55:38;1.90;99.90
35127;DHT22;21300;52.006;5.798;2023-02-26T04:58:05;1.90;99.90
35127;DHT22;21300;52.006;5.798;2023-02-26T05:00:31;1.90;99.90
35127;DHT22;21300;52.006;5.798;2023-02-26T05:02:57;1.90;99.90
35127;DHT22;21300;52.006;5.798;2023-02-26T05:05:23;1.90;99.90
35127;DHT22;21300;52.006;5.798;2023-02-26T05:07:48;1.80;99.90
35127;DHT22;21300;52.006;5.798;2023-02-26T05:10:14;1.80;99.90
35127;DHT22;21300;52.006;5.798;2023-02-26T05:12:40;1.80;99.90
35127;DHT22;21300;52.006;5.798;2023-02-26T05:15:06;1.80;99.90
35127;DHT22;21300;52.006;5.798;2023-02-26T05:17:32;1.80;99.90
35127;DHT22;21300;52.006;5.798;2023-02-26T05:19:57;1.80;99.90
35127;DHT22;21300;52.006;5.798;2023-02-26T05:22:23;1.80;99.90
35127;DHT22;21300;52.006;5.798;2023-02-26T05:24:48;1.70;99.90
35127;DHT22;21300;52.006;5.798;2023-02-26T05:27:14;1.70;99.90
35127;DHT22;21300;52.006;5.798;2023-02-26T05:29:40;1.70;99.90
35127;DHT22;21300;52.006;5.798;2023-02-26T05:32:09;1.70;99.90
35127;DHT22;21300;52.006;5.798;2023-02-26T05:34:35;1.70;99.90
35127;DHT22;21300;52.006;5.798;2023-02-26T05:37:00;1.70;99.90
35127;DHT22;21300;52.006;5.798;2023-02-26T05:39:26;1.60;99.90
35127;DHT22;21300;52.006;5.798;2023-02-26T05:41:51;1.70;99.90
35127;DHT22;21300;52.006;5.798;2023-02-26T05:44:20;1.70;99.90
35127;DHT22;21300;52.006;5.798;2023-02-26T05:46:45;1.60;99.90
35127;DHT22;21300;52.006;5.798;2023-02-26T05:49:11;1.60;99.90
35127;DHT22;21300;52.006;5.798;2023-02-26T05:51:37;1.60;99.90
35127;DHT22;21300;52.006;5.798;2023-02-26T05:54:04;1.60;99.90
35127;DHT22;21300;52.006;5.798;2023-02-26T05:56:29;1.60;99.90
35127;DHT22;21300;52.006;5.798;2023-02-26T05:58:55;1.60;99.90
35127;DHT22;21300;52.006;5.798;2023-02-26T06:01:20;1.50;99.90
35127;DHT22;21300;52.006;5.798;2023-02-26T06:03:46;1.50;99.90
35127;DHT22;21300;52.006;5.798;2023-02-26T06:06:12;1.50;99.90
35127;DHT22;21300;52.006;5.798;2023-02-26T06:08:40;1.50;99.90
35127;DHT22;21300;52.006;5.798;2023-02-26T06:11:06;1.50;99.90
35127;DHT22;21300;52.006;5.798;2023-02-26T06:13:31;1.50;99.90
35127;DHT22;21300;52.006;5.798;2023-02-26T06:15:57;1.50;99.90
35127;DHT22;21300;52.006;5.798;2023-02-26T06:18:23;1.50;99.90
35127;DHT22;21300;52.006;5.798;2023-02-26T06:20:48;1.50;99.90
35127;DHT22;21300;52.006;5.798;2023-02-26T06:23:14;1.50;99.90
35127;DHT22;21300;52.006;5.798;2023-02-26T06:25:40;1.40;99.90
35127;DHT22;21300;52.006;5.798;2023-02-26T06:28:07;1.40;99.90
35127;DHT22;21300;52.006;5.798;2023-02-26T06:30:32;1.40;99.90
35127;DHT22;21300;52.006;5.798;2023-02-26T06:32:58;1.40;99.90
35127;DHT22;21300;52.006;5.798;2023-02-26T06:35:24;1.40;99.90
35127;DHT22;21300;52.006;5.798;2023-02-26T06:37:49;1.40;99.90
35127;DHT22;21300;52.006;5.798;2023-02-26T06:40:15;1.40;99.90
35127;DHT22;21300;52.006;5.798;2023-02-26T06:42:40;1.40;99.90
35127;DHT22;21300;52.006;5.798;2023-02-26T06:45:06;1.40;99.90
35127;DHT22;21300;52.006;5.798;2023-02-26T06:47:32;1.30;99.90
35127;DHT22;21300;52.006;5.798;2023-02-26T06:49:58;1.40;99.90
35127;DHT22;21300;52.006;5.798;2023-02-26T06:52:24;1.30;99.90
35127;DHT22;21300;52.006;5.798;2023-02-26T06:54:49;1.30;99.90
35127;DHT22;21300;52.006;5.798;2023-02-26T06:57:15;1.30;99.90
35127;DHT22;21300;52.006;5.798;2023-02-26T06:59:40;1.30;99.90
35127;DHT22;21300;52.006;5.798;2023-02-26T07:02:06;1.30;99.90
35127;DHT22;21300;52.006;5.798;2023-02-26T07:04:31;1.30;99.90
35127;DHT22;21300;52.006;5.798;2023-02-26T07:06:57;1.30;99.90
35127;DHT22;21300;52.006;5.798;2023-02-26T07:09:23;1.20;99.90
35127;DHT22;21300;52.006;5.798;2023-02-26T07:11:48;1.30;99.90
35127;DHT22;21300;52.006;5.798;2023-02-26T07:14:14;1.30;99.90
35127;DHT22;21300;52.006;5.798;2023-02-26T07:16:39;1.30;99.90
35127;DHT22;21300;52.006;5.798;2023-02-26T07:19:05;1.20;99.90
35127;DHT22;21300;52.006;5.798;2023-02-26T07:21:31;1.20;99.90
35127;DHT22;21300;52.006;5.798;2023-02-26T07:23:56;1.20;99.90
35127;DHT22;21300;52.006;5.798;2023-02-26T07:26:22;1.20;99.90
35127;DHT22;21300;52.006;5.798;2023-02-26T07:28:47;1.20;99.90
35127;DHT22;21300;52.006;5.798;2023-02-26T07:31:13;1.20;99.90
35127;DHT22;21300;52.006;5.798;2023-02-26T07:33:40;1.20;99.90
35127;DHT22;21300;52.006;5.798;2023-02-26T07:36:06;1.20;99.90
35127;DHT22;21300;52.006;5.798;2023-02-26T07:38:32;1.20;99.90
35127;DHT22;21300;52.006;5.798;2023-02-26T07:40:57;1.20;99.90
35127;DHT22;21300;52.006;5.798;2023-02-26T07:43:23;1.20;99.90
35127;DHT22;21300;52.006;5.798;2023-02-26T07:45:50;1.20;99.90
35127;DHT22;21300;52.006;5.798;2023-02-26T07:48:16;1.20;99.90
35127;DHT22;21300;52.006;5.798;2023-02-26T07:50:42;1.20;99.90
35127;DHT22;21300;52.006;5.798;2023-02-26T07:53:08;1.20;99.90
35127;DHT22;21300;52.006;5.798;2023-02-26T07:55:34;1.20;99.90
35127;DHT22;21300;52.006;5.798;2023-02-26T07:57:59;1.20;99.90
35127;DHT22;21300;52.006;5.798;2023-02-26T08:00:25;1.20;99.90
35127;DHT22;21300;52.006;5.798;2023-02-26T08:02:50;1.20;99.90
35127;DHT22;21300;52.006;5.798;2023-02-26T08:05:16;1.20;99.90
35127;DHT22;21300;52.006;5.798;2023-02-26T08:07:42;1.10;99.90
35127;DHT22;21300;52.006;5.798;2023-02-26T08:10:08;1.10;99.90
35127;DHT22;21300;52.006;5.798;2023-02-26T08:12:34;1.20;99.90
35127;DHT22;21300;52.006;5.798;2023-02-26T08:15:01;1.20;99.90
35127;DHT22;21300;52.006;5.798;2023-02-26T08:17:26;1.10;99.90
35127;DHT22;21300;52.006;5.798;2023-02-26T08:19:52;1.20;99.90
35127;DHT22;21300;52.006;5.798;2023-02-26T08:22:18;1.20;99.90
35127;DHT22;21300;52.006;5.798;2023-02-26T08:24:44;1.20;99.90
35127;DHT22;21300;52.006;5.798;2023-02-26T08:27:09;1.20;99.90
35127;DHT22;21300;52.006;5.798;2023-02-26T08:29:35;1.20;99.90
35127;DHT22;21300;52.006;5.798;2023-02-26T08:32:01;1.20;99.90
35127;DHT22;21300;52.006;5.798;2023-02-26T08:34:26;1.30;99.90
35127;DHT22;21300;52.006;5.798;2023-02-26T08:36:52;1.20;99.90
35127;DHT22;21300;52.006;5.798;2023-02-26T08:39:17;1.20;99.90
35127;DHT22;21300;52.006;5.798;2023-02-26T08:41:43;1.20;99.90
35127;DHT22;21300;52.006;5.798;2023-02-26T08:44:10;1.20;99.90
35127;DHT22;21300;52.006;5.798;2023-02-26T08:46:35;1.20;99.90
35127;DHT22;21300;52.006;5.798;2023-02-26T08:49:01;1.30;99.90
35127;DHT22;21300;52.006;5.798;2023-02-26T08:51:27;1.30;99.90
35127;DHT22;21300;52.006;5.798;2023-02-26T08:53:52;1.30;99.90
35127;DHT22;21300;52.006;5.798;2023-02-26T08:56:18;1.30;99.90
35127;DHT22;21300;52.006;5.798;2023-02-26T08:58:44;1.30;99.90
35127;DHT22;21300;52.006;5.798;2023-02-26T09:01:09;1.30;99.90
35127;DHT22;21300;52.006;5.798;2023-02-26T09:03:35;1.40;99.90
35127;DHT22;21300;52.006;5.798;2023-02-26T09:06:01;1.40;99.90
35127;DHT22;21300;52.006;5.798;2023-02-26T09:08:29;1.40;99.90
35127;DHT22;21300;52.006;5.798;2023-02-26T09:10:59;1.40;99.90
35127;DHT22;21300;52.006;5.798;2023-02-26T09:13:25;1.40;99.90
35127;DHT22;21300;52.006;5.798;2023-02-26T09:15:51;1.40;99.90
35127;DHT22;21300;52.006;5.798;2023-02-26T09:18:16;1.40;99.90
35127;DHT22;21300;52.006;5.798;2023-02-26T09:20:42;1.50;99.90
35127;DHT22;21300;52.006;5.798;2023-02-26T09:23:08;1.50;99.90
35127;DHT22;21300;52.006;5.798;2023-02-26T09:25:34;1.50;99.90
35127;DHT22;21300;52.006;5.798;2023-02-26T09:28:00;1.50;99.90
35127;DHT22;21300;52.006;5.798;2023-02-26T09:30:26;1.50;99.90
35127;DHT22;21300;52.006;5.798;2023-02-26T09:32:52;1.50;99.90
35127;DHT22;21300;52.006;5.798;2023-02-26T09:35:18;1.60;99.90
35127;DHT22;21300;52.006;5.798;2023-02-26T09:37:43;1.50;99.30
35127;DHT22;21300;52.006;5.798;2023-02-26T09:40:25;1.60;99.90
35127;DHT22;21300;52.006;5.798;2023-02-26T09:45:38;1.60;99.60
35127;DHT22;21300;52.006;5.798;2023-02-26T09:48:05;1.60;99.70
35127;DHT22;21300;52.006;5.798;2023-02-26T09:50:51;1.70;99.50
35127;DHT22;21300;52.006;5.798;2023-02-26T09:53:32;1.70;99.40
35127;DHT22;21300;52.006;5.798;2023-02-26T09:56:20;1.70;99.30
35127;DHT22;21300;52.006;5.798;2023-02-26T09:58:47;1.80;99.40
35127;DHT22;21300;52.006;5.798;2023-02-26T10:01:43;1.80;99.60
35127;DHT22;21300;52.006;5.798;2023-02-26T10:07:22;1.90;99.40
35127;DHT22;21300;52.006;5.798;2023-02-26T10:12:40;1.90;98.90
35127;DHT22;21300;52.006;5.798;2023-02-26T10:15:14;1.90;98.60
35127;DHT22;21300;52.006;5.798;2023-02-26T10:20:49;2.00;99.00
35127;DHT22;21300;52.006;5.798;2023-02-26T10:23:19;2.00;98.90
35127;DHT22;21300;52.006;5.798;2023-02-26T10:28:56;2.10;99.10
35127;DHT22;21300;52.006;5.798;2023-02-26T10:31:37;2.20;98.80
35127;DHT22;21300;52.006;5.798;2023-02-26T10:37:09;2.30;99.10
35127;DHT22;21300;52.006;5.798;2023-02-26T10:42:24;2.30;99.40
35127;DHT22;21300;52.006;5.798;2023-02-26T10:50:27;2.40;99.30
35127;DHT22;21300;52.006;5.798;2023-02-26T10:52:54;2.40;99.40
35127;DHT22;21300;52.006;5.798;2023-02-26T10:55:42;2.50;99.70
35127;DHT22;21300;52.006;5.798;2023-02-26T10:58:35;2.50;99.80
35127;DHT22;21300;52.006;5.798;2023-02-26T11:01:01;2.60;99.20
35127;DHT22;21300;52.006;5.798;2023-02-26T11:03:36;2.60;99.90
35127;DHT22;21300;52.006;5.798;2023-02-26T11:06:04;2.60;99.50
35127;DHT22;21300;52.006;5.798;2023-02-26T11:08:40;2.60;98.90
35127;DHT22;21300;52.006;5.798;2023-02-26T11:11:07;2.60;99.40
35127;DHT22;21300;52.006;5.798;2023-02-26T11:13:35;2.70;99.40
35127;DHT22;21300;52.006;5.798;2023-02-26T11:16:07;2.70;99.30
35127;DHT22;21300;52.006;5.798;2023-02-26T11:18:52;2.70;99.90
35127;DHT22;21300;52.006;5.798;2023-02-26T11:21:26;2.70;98.90
35127;DHT22;21300;52.006;5.798;2023-02-26T11:24:31;2.70;99.10
35127;DHT22;21300;52.006;5.798;2023-02-26T11:26:49;2.80;99.60
35127;DHT22;21300;52.006;5.798;2023-02-26T11:29:18;2.90;99.80
35127;DHT22;21300;52.006;5.798;2023-02-26T11:31:52;2.90;99.30
35127;DHT22;21300;52.006;5.798;2023-02-26T11:34:24;2.90;99.30
35127;DHT22;21300;52.006;5.798;2023-02-26T11:36:52;2.90;99.40
35127;DHT22;21300;52.006;5.798;2023-02-26T11:39:25;3.00;99.10
35127;DHT22;21300;52.006;5.798;2023-02-26T11:41:55;3.00;99.20
35127;DHT22;21300;52.006;5.798;2023-02-26T11:46:56;3.20;98.20
35127;DHT22;21300;52.006;5.798;2023-02-26T11:49:26;3.20;98.80
35127;DHT22;21300;52.006;5.798;2023-02-26T11:54:39;3.30;99.70
35127;DHT22;21300;52.006;5.798;2023-02-26T11:57:10;3.30;99.10
35127;DHT22;21300;52.006;5.798;2023-02-26T11:59:40;3.30;98.10
35127;DHT22;21300;52.006;5.798;2023-02-26T12:02:13;3.40;97.90
35127;DHT22;21300;52.006;5.798;2023-02-26T12:04:42;3.40;98.40
35127;DHT22;21300;52.006;5.798;2023-02-26T12:07:12;3.40;98.40
35127;DHT22;21300;52.006;5.798;2023-02-26T12:09:38;3.40;99.00
35127;DHT22;21300;52.006;5.798;2023-02-26T12:18:19;3.60;99.20
35127;DHT22;21300;52.006;5.798;2023-02-26T12:27:09;3.70;99.60
35127;DHT22;21300;52.006;5.798;2023-02-26T12:29:40;3.70;99.40
35127;DHT22;21300;52.006;5.798;2023-02-26T12:35:24;3.70;99.30
35127;DHT22;21300;52.006;5.798;2023-02-26T12:38:46;3.80;99.40
35127;DHT22;21300;52.006;5.798;2023-02-26T12:43:48;3.90;99.40
35127;DHT22;21300;52.006;5.798;2023-02-26T12:54:36;4.10;96.80
35127;DHT22;21300;52.006;5.798;2023-02-26T13:05:15;4.40;95.40
35127;DHT22;21300;52.006;5.798;2023-02-26T13:10:56;4.30;96.50
35127;DHT22;21300;52.006;5.798;2023-02-26T13:16:35;4.40;96.40
35127;DHT22;21300;52.006;5.798;2023-02-26T13:22:02;4.30;96.60
35127;DHT22;21300;52.006;5.798;2023-02-26T13:25:03;4.40;96.90
35127;DHT22;21300;52.006;5.798;2023-02-26T13:27:40;4.30;96.00
35127;DHT22;21300;52.006;5.798;2023-02-26T13:30:22;4.30;96.20
35127;DHT22;21300;52.006;5.798;2023-02-26T13:32:53;4.40;96.70
35127;DHT22;21300;52.006;5.798;2023-02-26T13:35:30;4.40;97.00
35127;DHT22;21300;52.006;5.798;2023-02-26T13:37:59;4.40;97.00
35127;DHT22;21300;52.006;5.798;2023-02-26T13:40:50;4.40;97.40
35127;DHT22;21300;52.006;5.798;2023-02-26T13:43:51;4.40;96.90
35127;DHT22;21300;52.006;5.798;2023-02-26T13:49:28;4.40;97.50
35127;DHT22;21300;52.006;5.798;2023-02-26T13:51:56;4.40;97.60
35127;DHT22;21300;52.006;5.798;2023-02-26T13:54:32;4.40;97.50
35127;DHT22;21300;52.006;5.798;2023-02-26T13:57:32;4.50;98.00
35127;DHT22;21300;52.006;5.798;2023-02-26T14:02:55;4.40;97.20
35127;DHT22;21300;52.006;5.798;2023-02-26T14:06:20;4.40;97.70
35127;DHT22;21300;52.006;5.798;2023-02-26T14:11:32;4.50;97.60
35127;DHT22;21300;52.006;5.798;2023-02-26T14:14:13;4.50;97.60
35127;DHT22;21300;52.006;5.798;2023-02-26T14:16:42;4.50;97.70
35127;DHT22;21300;52.006;5.798;2023-02-26T14:24:37;4.50;97.40
35127;DHT22;21300;52.006;5.798;2023-02-26T14:29:42;4.50;98.50
35127;DHT22;21300;52.006;5.798;2023-02-26T14:34:42;4.50;97.20
35127;DHT22;21300;52.006;5.798;2023-02-26T14:37:13;4.50;96.40
35127;DHT22;21300;52.006;5.798;2023-02-26T14:39:44;4.40;97.10
35127;DHT22;21300;52.006;5.798;2023-02-26T14:42:26;4.40;97.20
35127;DHT22;21300;52.006;5.798;2023-02-26T14:47:43;4.50;98.20
35127;DHT22;21300;52.006;5.798;2023-02-26T14:50:14;4.40;98.10
35127;DHT22;21300;52.006;5.798;2023-02-26T14:52:47;4.40;97.50
35127;DHT22;21300;52.006;5.798;2023-02-26T15:00:45;4.40;98.30
35127;DHT22;21300;52.006;5.798;2023-02-26T15:08:35;4.50;98.40
35127;DHT22;21300;52.006;5.798;2023-02-26T15:11:23;4.50;98.30
35127;DHT22;21300;52.006;5.798;2023-02-26T15:14:16;4.40;98.60
35127;DHT22;21300;52.006;5.798;2023-02-26T15:19:34;4.50;99.20
35127;DHT22;21300;52.006;5.798;2023-02-26T15:22:13;4.40;98.60
35127;DHT22;21300;52.006;5.798;2023-02-26T15:24:42;4.50;99.60
35127;DHT22;21300;52.006;5.798;2023-02-26T15:27:14;4.50;99.30
35127;DHT22;21300;52.006;5.798;2023-02-26T15:29:41;4.40;98.10
35127;DHT22;21300;52.006;5.798;2023-02-26T15:32:22;4.50;98.50
35127;DHT22;21300;52.006;5.798;2023-02-26T15:34:57;4.50;98.70
35127;DHT22;21300;52.006;5.798;2023-02-26T15:37:24;4.50;99.00
35127;DHT22;21300;52.006;5.798;2023-02-26T15:39:51;4.40;98.70
35127;DHT22;21300;52.006;5.798;2023-02-26T15:42:18;4.50;98.50
35127;DHT22;21300;52.006;5.798;2023-02-26T15:44:46;4.50;98.50
35127;DHT22;21300;52.006;5.798;2023-02-26T15:47:14;4.40;98.60
35127;DHT22;21300;52.006;5.798;2023-02-26T15:49:43;4.40;99.20
35127;DHT22;21300;52.006;5.798;2023-02-26T15:52:15;4.50;99.50
35127;DHT22;21300;52.006;5.798;2023-02-26T15:54:48;4.40;99.10
35127;DHT22;21300;52.006;5.798;2023-02-26T15:57:15;4.50;98.70
35127;DHT22;21300;52.006;5.798;2023-02-26T15:59:50;4.40;98.80
35127;DHT22;21300;52.006;5.798;2023-02-26T16:02:28;4.40;98.50
35127;DHT22;21300;52.006;5.798;2023-02-26T16:04:55;4.40;98.70
35127;DHT22;21300;52.006;5.798;2023-02-26T16:07:21;4.50;98.50
35127;DHT22;21300;52.006;5.798;2023-02-26T16:09:49;4.40;98.40
35127;DHT22;21300;52.006;5.798;2023-02-26T16:12:21;4.50;98.90
35127;DHT22;21300;52.006;5.798;2023-02-26T16:14:53;4.50;99.10
35127;DHT22;21300;52.006;5.798;2023-02-26T16:17:37;4.40;99.00
35127;DHT22;21300;52.006;5.798;2023-02-26T16:20:07;4.40;99.10
35127;DHT22;21300;52.006;5.798;2023-02-26T16:22:39;4.40;99.10
35127;DHT22;21300;52.006;5.798;2023-02-26T16:28:09;4.40;99.30
35127;DHT22;21300;52.006;5.798;2023-02-26T16:30:37;4.40;99.40
35127;DHT22;21300;52.006;5.798;2023-02-26T16:33:06;4.40;99.40
35127;DHT22;21300;52.006;5.798;2023-02-26T16:35:38;4.40;99.50
35127;DHT22;21300;52.006;5.798;2023-02-26T16:38:27;4.40;99.20
35127;DHT22;21300;52.006;5.798;2023-02-26T16:41:04;4.40;99.40
35127;DHT22;21300;52.006;5.798;2023-02-26T16:46:02;4.40;99.30
35127;DHT22;21300;52.006;5.798;2023-02-26T16:48:32;4.40;99.50
35127;DHT22;21300;52.006;5.798;2023-02-26T16:51:12;4.40;99.40
35127;DHT22;21300;52.006;5.798;2023-02-26T16:53:58;4.40;99.20
35127;DHT22;21300;52.006;5.798;2023-02-26T16:56:29;4.40;99.50
35127;DHT22;21300;52.006;5.798;2023-02-26T16:59:06;4.40;99.20
35127;DHT22;21300;52.006;5.798;2023-02-26T17:01:45;4.40;99.50
35127;DHT22;21300;52.006;5.798;2023-02-26T17:04:14;4.40;99.50
35127;DHT22;21300;52.006;5.798;2023-02-26T17:06:41;4.30;99.10
35127;DHT22;21300;52.006;5.798;2023-02-26T17:09:14;4.40;99.40
35127;DHT22;21300;52.006;5.798;2023-02-26T17:11:47;4.40;99.80
35127;DHT22;21300;52.006;5.798;2023-02-26T17:14:25;4.30;99.60
35127;DHT22;21300;52.006;5.798;2023-02-26T17:16:52;4.30;99.40
35127;DHT22;21300;52.006;5.798;2023-02-26T17:19:18;4.30;99.50
35127;DHT22;21300;52.006;5.798;2023-02-26T17:21:54;4.30;99.30
35127;DHT22;21300;52.006;5.798;2023-02-26T17:24:35;4.30;99.10
35127;DHT22;21300;52.006;5.798;2023-02-26T17:27:05;4.30;99.30
35127;DHT22;21300;52.006;5.798;2023-02-26T17:29:35;4.30;99.40
35127;DHT22;21300;52.006;5.798;2023-02-26T17:32:05;4.30;99.20
35127;DHT22;21300;52.006;5.798;2023-02-26T17:34:32;4.30;99.70
35127;DHT22;21300;52.006;5.798;2023-02-26T17:36:58;4.30;99.60
35127;DHT22;21300;52.006;5.798;2023-02-26T17:39:24;4.30;99.40
35127;DHT22;21300;52.006;5.798;2023-02-26T17:41:50;4.30;99.50
35127;DHT22;21300;52.006;5.798;2023-02-26T17:44:16;4.20;99.60
35127;DHT22;21300;52.006;5.798;2023-02-26T17:46:41;4.20;99.60
35127;DHT22;21300;52.006;5.798;2023-02-26T17:49:08;4.20;99.50
35127;DHT22;21300;52.006;5.798;2023-02-26T17:51:35;4.20;99.80
35127;DHT22;21300;52.006;5.798;2023-02-26T17:54:01;4.20;99.20
35127;DHT22;21300;52.006;5.798;2023-02-26T17:56:29;4.20;99.00
35127;DHT22;21300;52.006;5.798;2023-02-26T17:58:56;4.20;99.30
35127;DHT22;21300;52.006;5.798;2023-02-26T18:01:23;4.20;99.30
35127;DHT22;21300;52.006;5.798;2023-02-26T18:03:50;4.20;99.60
35127;DHT22;21300;52.006;5.798;2023-02-26T18:06:16;4.20;99.50
35127;DHT22;21300;52.006;5.798;2023-02-26T18:08:42;4.10;99.50
35127;DHT22;21300;52.006;5.798;2023-02-26T18:11:10;4.10;99.10
35127;DHT22;21300;52.006;5.798;2023-02-26T18:13:37;4.10;99.50
35127;DHT22;21300;52.006;5.798;2023-02-26T18:16:03;4.10;98.90
35127;DHT22;21300;52.006;5.798;2023-02-26T18:18:30;4.10;99.30
35127;DHT22;21300;52.006;5.798;2023-02-26T18:20:56;4.10;99.40
35127;DHT22;21300;52.006;5.798;2023-02-26T18:23:22;4.10;99.30
35127;DHT22;21300;52.006;5.798;2023-02-26T18:25:50;4.10;99.20
35127;DHT22;21300;52.006;5.798;2023-02-26T18:28:25;4.10;99.60
35127;DHT22;21300;52.006;5.798;2023-02-26T18:30:51;4.10;99.40
35127;DHT22;21300;52.006;5.798;2023-02-26T18:33:17;4.00;99.50
35127;DHT22;21300;52.006;5.798;2023-02-26T18:35:44;4.00;99.50
35127;DHT22;21300;52.006;5.798;2023-02-26T18:38:15;4.00;99.30
35127;DHT22;21300;52.006;5.798;2023-02-26T18:40:42;4.00;99.30
35127;DHT22;21300;52.006;5.798;2023-02-26T18:43:08;4.00;99.30
35127;DHT22;21300;52.006;5.798;2023-02-26T18:45:38;4.00;99.70
35127;DHT22;21300;52.006;5.798;2023-02-26T18:48:03;4.00;99.70
35127;DHT22;21300;52.006;5.798;2023-02-26T18:50:29;4.00;99.60